Time;durP1;ratioP1;P1;durP2;ratioP2;P2;SDS_P1;SDS_P2;PMS_P1;PMS_P2;Temp;Humidity;BMP_temperature;BMP_pressure;BME280_temperature;BME280_humidity;BME280_pressure;Samples;Min_cycle;Max_cycle;Signal;HPM_P1;HPM_P2
2023/03/14 00:00:56;;;;;;;23.08;4.32;;;9.10;99.90;;;;;;5064622;28;20052;-86
2023/03/14 00:03:22;;;;;;;26.20;5.32;;;9.30;99.90;;;;;;5046279;28;20064;-87
2023/03/14 00:05:47;;;;;;;21.75;5.28;;;9.10;99.90;;;;;;5032373;28;20048;-87
2023/03/14 00:08:13;;;;;;;22.63;4.65;;;9.20;99.90;;;;;;5047950;28;20496;-86
2023/03/14 00:10:39;;;;;;;21.90;5.18;;;9.20;99.90;;;;;;5031104;28;20039;-86
2023/03/14 00:13:05;;;;;;;22.23;5.00;;;;;;;;;;5064818;28;20032;-86
2023/03/14 00:15:35;;;;;;;19.52;4.45;;;9.20;99.90;;;;;;5043923;28;20044;-87
2023/03/14 00:18:01;;;;;;;24.02;4.72;;;9.30;99.90;;;;;;5031823;28;20369;-87
2023/03/14 00:20:27;;;;;;;19.15;4.82;;;9.00;99.90;;;;;;5048772;28;20040;-85
2023/03/14 00:22:53;;;;;;;18.77;4.13;;;9.30;99.90;;;;;;5048688;28;20036;-87
2023/03/14 00:25:19;;;;;;;21.05;5.05;;;9.40;99.90;;;;;;5062813;28;20137;-87
2023/03/14 00:27:44;;;;;;;19.25;4.53;;;9.40;99.90;;;;;;5065991;28;20144;-87
2023/03/14 00:30:10;;;;;;;21.23;5.55;;;9.50;99.90;;;;;;5042105;28;20482;-87
2023/03/14 00:32:36;;;;;;;24.58;4.80;;;9.50;99.90;;;;;;5063580;28;20040;-87
2023/03/14 00:35:03;;;;;;;18.25;4.20;;;9.50;99.90;;;;;;5061319;28;20040;-86
2023/03/14 00:37:29;;;;;;;19.15;4.75;;;9.60;99.90;;;;;;5063930;28;20043;-87
2023/03/14 00:39:54;;;;;;;24.60;5.53;;;9.50;99.90;;;;;;5047772;28;20037;-86
2023/03/14 00:42:20;;;;;;;21.63;4.10;;;9.60;99.90;;;;;;5049989;28;20167;-87
2023/03/14 00:44:46;;;;;;;18.35;3.70;;;9.60;99.90;;;;;;5060441;28;20076;-86
2023/03/14 00:47:11;;;;;;;19.70;4.00;;;9.50;99.90;;;;;;5063787;28;20044;-86
2023/03/14 00:49:37;;;;;;;21.05;4.45;;;9.60;99.90;;;;;;5064709;28;20267;-87
2023/03/14 00:52:03;;;;;;;19.45;5.13;;;9.50;99.90;;;;;;5047770;28;20065;-86
2023/03/14 00:54:29;;;;;;;20.10;4.38;;;9.60;99.90;;;;;;5047161;28;20040;-87
2023/03/14 00:56:55;;;;;;;20.50;4.78;;;9.60;99.90;;;;;;5061245;28;20093;-87
2023/03/14 00:59:22;;;;;;;22.45;5.00;;;9.60;99.90;;;;;;5048277;28;20246;-88
2023/03/14 01:01:47;;;;;;;24.08;4.07;;;9.60;99.90;;;;;;5045891;28;20041;-87
2023/03/14 01:04:13;;;;;;;18.00;3.92;;;9.60;99.90;;;;;;5029797;28;20097;-88
2023/03/14 01:06:39;;;;;;;17.05;4.47;;;9.60;99.90;;;;;;5046546;28;20059;-87
2023/03/14 01:09:05;;;;;;;19.00;4.47;;;9.60;99.90;;;;;;5047949;28;20029;-87
2023/03/14 01:11:34;;;;;;;21.95;4.10;;;9.60;99.90;;;;;;5031167;28;20438;-86
2023/03/14 01:14:01;;;;;;;15.85;4.28;;;9.70;99.90;;;;;;5064113;28;20059;-87
2023/03/14 01:16:29;;;;;;;16.55;4.18;;;9.70;99.90;;;;;;5056510;28;20044;-87
2023/03/14 01:18:54;;;;;;;21.80;4.32;;;9.70;99.90;;;;;;5041150;28;20040;-86
2023/03/14 01:21:23;;;;;;;24.63;4.93;;;9.70;99.90;;;;;;5046059;28;20044;-86
2023/03/14 01:23:52;;;;;;;19.25;4.10;;;9.70;99.90;;;;;;5064599;28;20044;-87
2023/03/14 01:26:22;;;;;;;16.20;3.60;;;9.80;99.90;;;;;;5064046;28;20720;-87
2023/03/14 01:28:49;;;;;;;16.45;3.85;;;9.80;99.90;;;;;;5076494;28;20048;-86
2023/03/14 01:31:15;;;;;;;19.02;3.80;;;9.80;99.90;;;;;;5045929;28;20036;-87
2023/03/14 01:33:42;;;;;;;16.75;4.32;;;9.80;99.90;;;;;;5028484;28;20036;-86
2023/03/14 01:36:09;;;;;;;19.48;4.05;;;9.80;99.90;;;;;;5045631;28;20044;-87
2023/03/14 01:38:36;;;;;;;17.70;3.97;;;9.80;99.90;;;;;;5047344;28;20159;-88
2023/03/14 01:41:03;;;;;;;21.02;4.32;;;9.90;99.90;;;;;;5062246;28;20097;-87
2023/03/14 01:43:30;;;;;;;16.73;3.75;;;9.90;99.90;;;;;;5063075;28;20078;-86
2023/03/14 01:46:04;;;;;;;14.88;3.92;;;10.00;99.90;;;;;;5046875;28;20040;-87
2023/03/14 01:48:44;;;;;;;16.30;3.92;;;10.00;99.90;;;;;;5064091;28;20044;-87
2023/03/14 01:51:20;;;;;;;24.73;4.90;;;10.00;99.90;;;;;;5061368;28;20073;-87
2023/03/14 01:53:48;;;;;;;18.65;4.07;;;10.10;99.90;;;;;;5038548;28;20144;-87
2023/03/14 01:56:18;;;;;;;22.25;4.32;;;10.00;99.90;;;;;;5045957;28;20075;-86
2023/03/14 01:58:47;;;;;;;20.90;3.75;;;10.00;99.90;;;;;;5063046;28;20036;-86
2023/03/14 02:01:16;;;;;;;13.55;3.38;;;10.00;99.90;;;;;;5063855;28;20040;-87
2023/03/14 02:03:50;;;;;;;15.85;3.33;;;10.00;99.90;;;;;;5061672;28;20109;-87
2023/03/14 02:06:19;;;;;;;14.63;3.30;;;10.00;99.90;;;;;;5062697;28;20124;-86
2023/03/14 02:08:48;;;;;;;17.13;3.88;;;10.00;99.90;;;;;;5047751;28;20032;-87
2023/03/14 02:11:14;;;;;;;15.40;3.42;;;10.00;99.90;;;;;;5030322;28;20275;-87
2023/03/14 02:13:40;;;;;;;14.23;3.53;;;10.00;99.90;;;;;;5044083;28;20050;-87
2023/03/14 02:16:06;;;;;;;15.20;3.92;;;10.00;99.90;;;;;;5047941;28;20044;-87
2023/03/14 02:18:32;;;;;;;14.85;3.28;;;10.00;99.90;;;;;;5046517;28;20032;-88
2023/03/14 02:21:20;;;;;;;13.93;3.05;;;10.00;99.90;;;;;;5046554;28;20098;-87
2023/03/14 02:24:05;;;;;;;15.57;3.15;;;10.00;99.90;;;;;;5044878;28;20044;-88
2023/03/14 02:26:41;;;;;;;16.23;3.10;;;9.90;99.90;;;;;;5062735;28;20044;-87
2023/03/14 02:29:07;;;;;;;14.27;3.00;;;9.90;99.90;;;;;;5062299;28;20501;-87
2023/03/14 02:31:33;;;;;;;14.82;2.97;;;9.80;99.90;;;;;;5060762;28;20075;-87
2023/03/14 02:34:00;;;;;;;15.93;3.00;;;9.80;99.90;;;;;;5048456;28;20405;-87
2023/03/14 02:36:26;;;;;;;14.38;3.20;;;9.70;99.90;;;;;;5048208;28;20037;-87
2023/03/14 02:39:10;;;;;;;15.90;3.28;;;9.70;99.90;;;;;;5047389;28;20060;-88
2023/03/14 02:41:36;;;;;;;20.70;2.90;;;9.70;99.90;;;;;;5048434;28;20855;-87
2023/03/14 02:44:01;;;;;;;14.85;3.55;;;9.60;99.90;;;;;;5053032;28;20074;-87
2023/03/14 02:46:27;;;;;;;15.70;3.10;;;9.60;99.90;;;;;;5032926;28;20481;-87
2023/03/14 02:49:08;;;;;;;13.18;3.15;;;9.60;99.90;;;;;;5034060;28;20102;-87
2023/03/14 02:51:35;;;;;;;14.45;3.00;;;9.60;99.90;;;;;;5062957;28;20024;-87
2023/03/14 02:54:00;;;;;;;11.65;2.83;;;9.60;99.90;;;;;;5032741;28;20044;-87
2023/03/14 02:56:26;;;;;;;15.45;3.38;;;9.60;99.90;;;;;;5047724;28;20085;-87
2023/03/14 02:58:52;;;;;;;11.32;2.70;;;9.60;99.90;;;;;;5029468;28;20127;-86
2023/03/14 03:01:18;;;;;;;12.80;2.80;;;9.60;99.90;;;;;;5024889;28;20547;-87
2023/03/14 03:03:43;;;;;;;11.27;2.90;;;9.60;99.90;;;;;;5048259;28;20505;-87
2023/03/14 03:06:09;;;;;;;14.23;2.75;;;9.60;99.90;;;;;;5047305;28;20402;-87
2023/03/14 03:08:35;;;;;;;10.48;2.85;;;9.60;99.90;;;;;;5065392;28;20090;-87
2023/03/14 03:11:01;;;;;;;13.65;3.17;;;10.80;99.90;;;;;;5047821;28;20097;-87
2023/03/14 03:13:27;;;;;;;14.43;2.70;;;9.60;99.90;;;;;;5049519;28;20072;-87
2023/03/14 03:15:53;;;;;;;10.77;2.60;;;9.60;99.90;;;;;;5031232;28;20087;-87
2023/03/14 03:18:19;;;;;;;14.18;2.78;;;9.60;99.90;;;;;;5047855;28;20149;-87
2023/03/14 03:20:45;;;;;;;11.57;2.75;;;9.40;99.90;;;;;;5028144;28;20044;-87
2023/03/14 03:23:12;;;;;;;12.10;2.85;;;9.60;99.90;;;;;;5049446;28;20044;-86
2023/03/14 03:25:37;;;;;;;12.50;3.17;;;9.50;99.90;;;;;;5048222;28;20116;-87
2023/03/14 03:28:07;;;;;;;12.30;2.78;;;9.50;99.90;;;;;;5065390;28;20115;-87
2023/03/14 03:30:37;;;;;;;13.85;3.40;;;9.40;99.90;;;;;;5048373;28;20432;-87
2023/03/14 03:33:02;;;;;;;12.60;2.80;;;9.40;99.90;;;;;;5066017;28;20040;-87
2023/03/14 03:35:28;;;;;;;12.27;2.80;;;9.30;99.90;;;;;;5048488;28;20032;-87
2023/03/14 03:37:54;;;;;;;11.93;2.92;;;9.20;99.90;;;;;;5065262;28;20072;-87
2023/03/14 03:40:20;;;;;;;15.27;3.50;;;9.20;99.90;;;;;;5033184;28;20230;-87
2023/03/14 03:42:45;;;;;;;12.60;3.10;;;9.10;99.90;;;;;;5049455;28;20040;-86
2023/03/14 03:45:11;;;;;;;15.65;3.42;;;9.10;99.90;;;;;;5049039;28;20542;-87
2023/03/14 03:47:36;;;;;;;11.70;3.00;;;9.10;99.90;;;;;;5064557;28;20083;-87
2023/03/14 03:50:03;;;;;;;13.80;3.35;;;9.00;99.90;;;;;;5047479;28;20040;-87
2023/03/14 03:52:28;;;;;;;11.40;2.88;;;9.00;99.90;;;;;;5063850;28;20607;-87
2023/03/14 03:54:54;;;;;;;13.18;3.20;;;9.00;99.90;;;;;;5032263;28;20153;-87
2023/03/14 03:57:20;;;;;;;12.98;3.10;;;9.00;99.90;;;;;;5048251;28;20047;-86
2023/03/14 03:59:46;;;;;;;14.60;3.22;;;9.00;99.90;;;;;;5048291;28;20080;-86
2023/03/14 04:02:11;;;;;;;13.70;3.30;;;8.90;99.90;;;;;;5045649;28;20060;-88
2023/03/14 04:04:38;;;;;;;12.98;3.70;;;8.90;99.90;;;;;;5049134;28;20040;-87
2023/03/14 04:07:04;;;;;;;17.08;4.25;;;;;;;;;;5032816;28;20389;-87
2023/03/14 04:09:30;;;;;;;14.35;3.83;;;8.90;99.90;;;;;;5065405;28;20039;-87
2023/03/14 04:11:56;;;;;;;14.68;4.85;;;9.00;99.90;;;;;;5064516;28;20516;-87
2023/03/14 04:14:22;;;;;;;18.25;3.85;;;9.00;99.90;;;;;;5050248;28;20044;-87
2023/03/14 04:16:48;;;;;;;15.73;4.25;;;9.00;99.90;;;;;;5064244;28;20040;-87
2023/03/14 04:19:14;;;;;;;15.20;4.20;;;9.00;99.90;;;;;;5065123;28;20468;-87
2023/03/14 04:21:44;;;;;;;14.07;4.18;;;9.00;99.90;;;;;;5047777;28;20047;-87
2023/03/14 04:24:10;;;;;;;13.18;3.83;;;9.00;99.90;;;;;;5046850;28;20040;-87
2023/03/14 04:26:35;;;;;;;17.35;4.05;;;9.00;99.90;;;;;;5065507;28;20511;-86
2023/03/14 04:29:01;;;;;;;14.75;4.15;;;9.20;99.90;;;;;;5047467;28;20113;-86
2023/03/14 04:31:27;;;;;;;15.88;4.50;;;8.90;99.90;;;;;;5046154;28;20092;-87
2023/03/14 04:33:53;;;;;;;19.67;4.90;;;8.90;99.90;;;;;;5060804;28;20037;-87
2023/03/14 04:36:19;;;;;;;16.58;4.68;;;8.90;99.90;;;;;;5044671;28;20043;-87
2023/03/14 04:38:44;;;;;;;13.93;4.50;;;8.90;99.90;;;;;;5048399;28;20040;-86
2023/03/14 04:41:10;;;;;;;13.48;4.63;;;8.90;99.90;;;;;;5062862;28;20040;-86
2023/03/14 04:43:36;;;;;;;15.82;4.57;;;9.80;99.90;;;;;;5030251;28;20079;-86
2023/03/14 04:46:01;;;;;;;16.30;5.10;;;8.90;99.90;;;;;;5037224;28;20130;-86
2023/03/14 04:48:28;;;;;;;16.20;5.35;;;8.80;99.90;;;;;;5031186;28;20068;-86
2023/03/14 04:50:53;;;;;;;14.48;5.40;;;8.90;99.90;;;;;;5062853;28;20039;-87
2023/03/14 04:53:19;;;;;;;12.68;5.47;;;8.90;99.90;;;;;;5043938;28;20044;-86
2023/03/14 04:55:54;;;;;;;15.85;5.15;;;8.90;99.90;;;;;;5046290;28;20044;-86
2023/03/14 04:58:20;;;;;;;13.75;5.55;;;8.90;99.90;;;;;;5063639;28;20036;-86
2023/03/14 05:00:46;;;;;;;12.40;4.53;;;8.80;99.90;;;;;;5046557;28;20717;-86
2023/03/14 05:03:13;;;;;;;14.70;5.50;;;8.80;99.90;;;;;;5060727;28;20379;-86
2023/03/14 05:05:39;;;;;;;16.75;5.35;;;8.80;99.90;;;;;;5063728;28;20036;-87
2023/03/14 05:08:05;;;;;;;16.67;5.13;;;8.80;99.90;;;;;;5046180;28;20040;-85
2023/03/14 05:10:31;;;;;;;13.95;5.05;;;8.70;99.90;;;;;;5064598;28;20078;-86
2023/03/14 05:12:56;;;;;;;13.35;5.18;;;8.80;99.90;;;;;;5029152;28;20082;-86
2023/03/14 05:15:22;;;;;;;18.00;5.22;;;8.80;99.90;;;;;;5046575;28;20040;-86
2023/03/14 05:17:49;;;;;;;17.83;5.15;;;8.80;99.90;;;;;;5047352;28;20493;-87
2023/03/14 05:20:15;;;;;;;12.80;4.70;;;8.80;99.90;;;;;;5046175;28;20590;-87
2023/03/14 05:22:41;;;;;;;13.77;4.80;;;8.80;99.90;;;;;;5047098;28;20405;-86
2023/03/14 05:25:08;;;;;;;16.50;5.53;;;8.80;99.90;;;;;;5028619;28;20515;-86
2023/03/14 05:27:35;;;;;;;15.90;5.25;;;8.70;99.90;;;;;;5029884;28;20116;-86
2023/03/14 05:30:02;;;;;;;12.82;4.75;;;8.80;99.90;;;;;;5063160;28;20101;-87
2023/03/14 05:32:28;;;;;;;15.77;5.10;;;8.70;99.90;;;;;;5058436;28;20550;-87
2023/03/14 05:34:57;;;;;;;16.17;5.00;;;8.70;99.90;;;;;;5047367;28;20555;-86
2023/03/14 05:37:24;;;;;;;17.45;5.40;;;8.70;99.90;;;;;;5059568;28;20036;-87
2023/03/14 05:39:50;;;;;;;18.48;6.07;;;8.70;99.90;;;;;;5064893;28;20094;-87
2023/03/14 05:42:16;;;;;;;15.57;5.15;;;8.70;99.90;;;;;;5063419;28;20141;-87
2023/03/14 05:44:41;;;;;;;18.00;5.32;;;8.90;99.90;;;;;;5045504;28;20559;-86
2023/03/14 05:47:07;;;;;;;18.98;5.47;;;8.70;99.90;;;;;;5032331;28;20390;-86
2023/03/14 05:49:33;;;;;;;17.50;5.30;;;8.60;99.90;;;;;;5044082;28;20068;-86
2023/03/14 05:51:58;;;;;;;16.45;5.38;;;8.70;99.90;;;;;;5046844;28;20097;-87
2023/03/14 05:54:24;;;;;;;15.60;5.43;;;8.70;99.90;;;;;;5029350;28;20033;-86
2023/03/14 05:56:50;;;;;;;15.85;5.43;;;8.70;99.90;;;;;;5024021;28;21177;-86
2023/03/14 05:59:16;;;;;;;14.55;4.78;;;8.70;99.90;;;;;;5023672;28;20033;-86
2023/03/14 06:01:41;;;;;;;13.73;4.90;;;8.70;99.90;;;;;;5008324;28;20489;-86
2023/03/14 06:04:07;;;;;;;13.93;4.85;;;9.10;99.90;;;;;;5026539;28;20029;-86
2023/03/14 06:06:32;;;;;;;16.85;5.00;;;8.60;99.90;;;;;;5006099;28;20131;-87
2023/03/14 06:08:58;;;;;;;15.27;4.70;;;8.70;99.90;;;;;;5045363;28;20599;-86
2023/03/14 06:11:24;;;;;;;16.63;5.25;;;8.70;99.90;;;;;;5049223;28;20075;-86
2023/03/14 06:13:51;;;;;;;15.32;4.70;;;8.70;99.90;;;;;;5034931;28;20040;-86
2023/03/14 06:16:16;;;;;;;13.45;4.70;;;8.60;99.90;;;;;;5064725;28;20040;-86
2023/03/14 06:18:42;;;;;;;11.02;4.45;;;8.60;99.90;;;;;;5032125;28;20489;-86
2023/03/14 06:21:08;;;;;;;11.80;4.45;;;8.70;99.90;;;;;;5051010;28;20047;-86
2023/03/14 06:23:34;;;;;;;12.27;4.60;;;8.60;99.90;;;;;;5067648;28;20048;-86
2023/03/14 06:26:00;;;;;;;12.70;3.72;;;8.70;99.90;;;;;;5049278;28;20066;-86
2023/03/14 06:28:26;;;;;;;11.95;4.25;;;8.70;99.90;;;;;;5033976;28;20034;-87
2023/03/14 06:30:52;;;;;;;12.10;4.32;;;8.70;99.90;;;;;;5065823;28;20035;-86
2023/03/14 06:33:17;;;;;;;10.80;3.72;;;8.60;99.90;;;;;;5033945;28;20106;-86
2023/03/14 06:35:43;;;;;;;11.38;4.47;;;8.70;99.90;;;;;;5055366;28;20040;-86
2023/03/14 06:38:09;;;;;;;13.80;4.28;;;8.60;99.90;;;;;;5048170;28;20097;-87
2023/03/14 06:40:35;;;;;;;9.20;2.35;;;8.60;99.90;;;;;;5048605;28;20048;-87
2023/03/14 06:43:00;;;;;;;7.78;1.73;;;8.50;99.90;;;;;;5051081;28;20076;-87
2023/03/14 06:45:26;;;;;;;10.45;1.85;;;8.90;99.90;;;;;;5050969;28;20052;-88
2023/03/14 06:47:52;;;;;;;11.05;2.40;;;8.30;99.90;;;;;;5050306;28;20044;-88
2023/03/14 06:50:18;;;;;;;13.25;2.30;;;7.50;99.90;;;;;;5049266;28;20070;-88
2023/03/14 06:52:47;;;;;;;14.55;2.50;;;7.30;99.90;;;;;;5050818;28;20094;-87
2023/03/14 06:55:14;;;;;;;14.32;2.60;;;8.60;99.90;;;;;;5047495;28;20051;-89
2023/03/14 06:57:41;;;;;;;13.95;3.00;;;;;;;;;;5049406;28;20070;-89
2023/03/14 07:00:07;;;;;;;16.38;2.83;;;6.90;99.90;;;;;;5064757;28;20432;-89
2023/03/14 07:02:33;;;;;;;14.15;2.47;;;;;;;;;;5067482;28;20036;-88
2023/03/14 07:05:00;;;;;;;16.75;2.47;;;6.60;99.90;;;;;;5065602;28;20041;-89
2023/03/14 07:07:26;;;;;;;12.30;2.38;;;7.30;99.90;;;;;;5047001;28;20112;-90
2023/03/14 07:09:52;;;;;;;16.23;2.88;;;7.40;99.90;;;;;;5030006;28;20040;-87
2023/03/14 07:12:18;;;;;;;12.82;2.38;;;7.00;99.90;;;;;;5045338;28;20040;-85
2023/03/14 07:14:43;;;;;;;12.85;2.22;;;6.20;99.90;;;;;;5047393;28;20123;-86
2023/03/14 07:17:11;;;;;;;12.20;2.35;;;5.80;99.90;;;;;;5030345;28;20059;-91
2023/03/14 07:19:37;;;;;;;9.82;1.92;;;7.20;99.90;;;;;;5050238;28;20036;-89
2023/03/14 07:22:04;;;;;;;9.70;2.55;;;5.60;99.90;;;;;;5051203;28;20397;-87
2023/03/14 07:24:30;;;;;;;8.20;1.60;;;5.40;99.90;;;;;;5048093;28;20049;-86
2023/03/14 07:26:56;;;;;;;9.18;1.80;;;7.10;99.90;;;;;;5063011;28;20044;-86
2023/03/14 07:29:21;;;;;;;9.27;1.90;;;5.20;99.90;;;;;;5034326;28;20224;-86
2023/03/14 07:31:47;;;;;;;6.97;2.00;;;5.10;99.90;;;;;;5045820;28;21531;-92
2023/03/14 07:34:13;;;;;;;8.27;1.73;;;6.30;99.90;;;;;;5049349;28;20044;-85
2023/03/14 07:36:39;;;;;;;7.50;1.60;;;6.70;99.90;;;;;;5034863;28;20060;-87
2023/03/14 07:39:05;;;;;;;3.67;1.05;;;4.90;99.90;;;;;;5065659;28;20055;-90
2023/03/14 07:41:31;;;;;;;3.22;1.35;;;4.80;99.90;;;;;;5028900;28;20140;-88
2023/03/14 07:43:57;;;;;;;9.20;1.38;;;4.70;99.90;;;;;;5047795;28;20127;-88
2023/03/14 07:46:23;;;;;;;5.85;1.20;;;4.60;99.90;;;;;;5045705;28;20051;-87
2023/03/14 07:48:49;;;;;;;5.47;1.20;;;4.60;99.90;;;;;;5049370;28;20119;-89
2023/03/14 07:51:14;;;;;;;7.57;1.40;;;2.80;99.90;;;;;;5032222;28;20036;-88
2023/03/14 07:53:40;;;;;;;5.72;1.52;;;6.00;99.90;;;;;;5032047;28;20036;-87
2023/03/14 07:56:06;;;;;;;9.15;1.50;;;4.60;99.90;;;;;;5064157;28;20123;-88
2023/03/14 07:58:32;;;;;;;7.32;1.40;;;4.60;99.90;;;;;;5050253;28;20418;-86
2023/03/14 08:00:59;;;;;;;8.10;1.20;;;4.70;99.90;;;;;;5033854;28;20051;-85
2023/03/14 08:03:25;;;;;;;6.93;1.25;;;4.70;99.90;;;;;;5033248;28;20041;-88
2023/03/14 08:05:51;;;;;;;6.72;1.20;;;5.00;99.90;;;;;;5049918;28;20046;-87
2023/03/14 08:08:19;;;;;;;6.18;1.10;;;4.60;99.90;;;;;;5032623;28;20035;-89
2023/03/14 08:10:46;;;;;;;5.28;1.10;;;4.60;99.90;;;;;;5047321;28;20507;-88
2023/03/14 08:13:11;;;;;;;4.25;0.93;;;5.00;99.90;;;;;;5047052;28;20029;-88
2023/03/14 08:15:37;;;;;;;5.63;1.25;;;4.60;99.90;;;;;;5045363;28;20114;-89
2023/03/14 08:18:04;;;;;;;4.05;1.08;;;5.80;99.90;;;;;;5030225;28;20080;-86
2023/03/14 08:20:30;;;;;;;9.60;1.50;;;4.70;99.90;;;;;;5047879;28;20040;-84
2023/03/14 08:23:00;;;;;;;11.95;1.50;;;4.70;99.90;;;;;;5047087;28;20040;-87
2023/03/14 08:25:27;;;;;;;6.40;1.00;;;4.80;99.90;;;;;;5047505;28;20043;-90
2023/03/14 08:27:53;;;;;;;5.60;1.35;;;4.90;99.90;;;;;;5062032;28;20029;-91
2023/03/14 08:30:20;;;;;;;8.48;1.70;;;4.90;99.90;;;;;;5029597;28;20037;-89
2023/03/14 08:32:49;;;;;;;9.15;1.60;;;5.00;99.90;;;;;;5065276;28;20037;-89
2023/03/14 08:35:16;;;;;;;7.45;1.50;;;5.10;99.90;;;;;;5047692;28;20045;-89
2023/03/14 08:37:42;;;;;;;5.97;1.50;;;5.10;99.90;;;;;;5047110;28;20067;-89
2023/03/14 08:40:09;;;;;;;7.50;1.80;;;5.50;99.90;;;;;;5064116;28;20036;-87
2023/03/14 08:42:39;;;;;;;8.45;1.92;;;5.30;99.90;;;;;;5065661;28;20040;-86
2023/03/14 08:45:06;;;;;;;8.05;1.77;;;6.40;99.90;;;;;;5059057;28;20048;-89
2023/03/14 08:47:32;;;;;;;7.95;1.92;;;5.50;99.90;;;;;;5063109;28;20493;-90
2023/03/14 08:49:58;;;;;;;9.38;2.13;;;5.60;99.90;;;;;;5063184;28;20041;-88
2023/03/14 08:52:24;;;;;;;11.77;2.28;;;6.70;99.90;;;;;;5046175;28;20033;-86
2023/03/14 08:54:50;;;;;;;12.48;2.00;;;6.60;99.90;;;;;;5044631;28;20044;-87
2023/03/14 08:57:15;;;;;;;13.80;2.53;;;7.50;99.90;;;;;;5061509;28;20044;-87
2023/03/14 08:59:41;;;;;;;11.27;1.95;;;5.90;99.90;;;;;;5044669;28;20500;-86
2023/03/14 09:02:11;;;;;;;13.35;2.47;;;5.90;99.90;;;;;;5046140;28;20041;-89
2023/03/14 09:04:36;;;;;;;13.63;2.90;;;5.90;99.90;;;;;;5047467;28;20137;-84
2023/03/14 09:07:03;;;;;;;11.27;2.47;;;5.90;99.90;;;;;;5044047;28;20123;-87
2023/03/14 09:09:29;;;;;;;11.38;2.20;;;6.00;99.90;;;;;;5046250;28;20045;-87
2023/03/14 09:11:55;;;;;;;11.10;2.28;;;6.00;99.90;;;;;;5032029;28;20093;-87
2023/03/14 09:14:21;;;;;;;12.70;2.58;;;6.10;99.90;;;;;;5049853;28;20107;-86
2023/03/14 09:16:47;;;;;;;13.55;3.05;;;7.20;99.90;;;;;;5058572;28;20198;-86
2023/03/14 09:19:12;;;;;;;15.55;2.88;;;7.40;99.90;;;;;;5043754;28;20094;-86
2023/03/14 09:21:38;;;;;;;18.50;3.60;;;6.20;99.90;;;;;;5042850;28;20045;-86
2023/03/14 09:24:05;;;;;;;18.83;3.45;;;6.60;99.90;;;;;;5030196;28;20127;-89
2023/03/14 09:26:31;;;;;;;20.45;3.80;;;6.40;99.90;;;;;;5030164;28;20032;-84
2023/03/14 09:28:57;;;;;;;17.98;3.22;;;6.40;99.90;;;;;;5025645;28;20275;-87
2023/03/14 09:31:22;;;;;;;16.48;3.25;;;7.70;99.90;;;;;;5061464;28;20277;-85
2023/03/14 09:33:48;;;;;;;22.27;4.03;;;7.50;99.90;;;;;;5030013;28;20036;-87
2023/03/14 09:36:14;;;;;;;19.02;3.33;;;7.60;99.90;;;;;;5045617;28;20079;-85
2023/03/14 09:38:39;;;;;;;17.00;3.08;;;6.70;99.90;;;;;;5028080;28;20068;-85
2023/03/14 09:41:38;;;;;;;19.92;3.20;;;6.30;99.90;;;;;;5032680;28;20518;-87
2023/03/14 09:44:28;;;;;;;18.50;3.95;;;6.30;99.90;;;;;;5059472;28;20640;-87
2023/03/14 09:46:58;;;;;;;19.60;3.47;;;6.40;99.90;;;;;;5058917;28;20135;-86
2023/03/14 09:49:25;;;;;;;19.63;3.67;;;7.50;99.90;;;;;;5062094;28;20595;-86
2023/03/14 09:51:54;;;;;;;24.65;3.75;;;6.60;99.90;;;;;;5062726;28;20093;-85
2023/03/14 09:54:31;;;;;;;21.52;3.28;;;7.00;99.90;;;;;;5060204;28;20033;-88
2023/03/14 09:56:57;;;;;;;25.33;4.72;;;;;;;;;;5043727;28;20041;-85
2023/03/14 09:59:22;;;;;;;22.42;4.13;;;6.70;99.90;;;;;;5060638;28;20039;-86
2023/03/14 10:01:48;;;;;;;18.40;3.50;;;6.80;99.90;;;;;;5030116;28;20033;-89
2023/03/14 10:04:18;;;;;;;16.52;3.50;;;6.80;99.90;;;;;;5042068;28;20032;-86
2023/03/14 10:06:44;;;;;;;18.95;3.25;;;6.90;99.90;;;;;;5057411;28;20109;-89
2023/03/14 10:09:18;;;;;;;17.42;3.30;;;7.00;99.90;;;;;;5029784;28;20040;-88
2023/03/14 10:11:44;;;;;;;16.52;3.15;;;7.00;99.90;;;;;;5059895;28;20489;-88
2023/03/14 10:14:19;;;;;;;18.52;3.85;;;8.10;99.90;;;;;;5028151;28;20239;-87
2023/03/14 10:16:45;;;;;;;15.43;2.70;;;6.70;99.90;;;;;;5042719;28;20155;-87
2023/03/14 10:19:14;;;;;;;21.10;3.63;;;6.70;99.90;;;;;;5062897;28;20036;-88
2023/03/14 10:21:49;;;;;;;15.10;3.20;;;6.70;99.90;;;;;;5061467;28;20081;-90
2023/03/14 10:24:34;;;;;;;20.33;3.35;;;6.60;99.90;;;;;;5059884;28;20044;-87
2023/03/14 10:27:04;;;;;;;16.58;3.50;;;6.60;99.90;;;;;;5058515;28;20131;-86
2023/03/14 10:29:34;;;;;;;17.33;3.40;;;6.60;99.90;;;;;;5062405;28;20059;-88
2023/03/14 10:32:12;;;;;;;16.20;3.60;;;6.80;99.90;;;;;;5059192;28;20493;-86
2023/03/14 10:34:39;;;;;;;14.35;2.80;;;6.70;99.90;;;;;;5042638;28;20032;-86
2023/03/14 10:37:27;;;;;;;12.43;3.17;;;6.90;99.90;;;;;;5044864;28;20047;-88
2023/03/14 10:39:58;;;;;;;18.25;3.97;;;6.90;99.90;;;;;;5042816;28;20500;-86
2023/03/14 10:42:38;;;;;;;13.93;2.70;;;6.90;99.90;;;;;;5062373;28;20025;-87
2023/03/14 10:45:07;;;;;;;14.90;2.72;;;;;;;;;;5057535;28;20033;-86
2023/03/14 10:47:33;;;;;;;11.18;2.60;;;6.80;99.90;;;;;;5057815;28;20453;-85
2023/03/14 10:50:25;;;;;;;13.70;2.75;;;6.90;99.90;;;;;;5026822;28;20140;-87
2023/03/14 10:52:53;;;;;;;14.38;2.83;;;6.90;99.90;;;;;;5062003;28;20033;-85
2023/03/14 10:55:19;;;;;;;15.13;2.85;;;9.00;99.90;;;;;;5063660;28;20504;-87
2023/03/14 10:57:44;;;;;;;13.10;2.28;;;7.50;99.90;;;;;;5064430;28;20044;-86
2023/03/14 11:00:22;;;;;;;18.15;2.67;;;7.50;99.90;;;;;;5031080;28;20551;-87
2023/03/14 11:02:57;;;;;;;12.48;2.25;;;6.80;99.90;;;;;;5063279;28;20037;-86
2023/03/14 11:05:32;;;;;;;18.38;3.22;;;6.70;99.90;;;;;;5048323;28;20032;-89
2023/03/14 11:08:07;;;;;;;13.15;2.50;;;6.60;99.90;;;;;;5047376;28;20044;-90
2023/03/14 11:10:42;;;;;;;13.98;2.67;;;6.50;99.90;;;;;;5062187;28;20277;-89
2023/03/14 11:13:30;;;;;;;11.10;2.13;;;6.50;99.90;;;;;;5064714;28;20073;-85
2023/03/14 11:15:58;;;;;;;10.05;2.17;;;6.60;99.90;;;;;;5065776;28;20135;-86
2023/03/14 11:18:58;;;;;;;14.77;2.30;;;6.80;99.90;;;;;;5062089;28;20033;-86
2023/03/14 11:21:53;;;;;;;11.88;2.92;;;6.90;99.90;;;;;;5048131;28;20486;-84
2023/03/14 11:24:40;;;;;;;12.27;2.22;;;6.90;99.90;;;;;;5028111;28;20498;-87
2023/03/14 11:27:21;;;;;;;11.77;2.00;;;6.80;99.90;;;;;;5063746;28;20048;-86
2023/03/14 11:30:12;;;;;;;12.60;2.15;;;6.90;99.90;;;;;;5062168;28;21148;-89
2023/03/14 11:32:46;;;;;;;14.85;2.33;;;6.80;99.90;;;;;;5044921;28;20085;-87
2023/03/14 11:35:36;;;;;;;8.30;1.75;;;6.70;99.90;;;;;;5060370;28;20033;-87
2023/03/14 11:38:35;;;;;;;9.38;2.15;;;6.60;99.90;;;;;;5058283;28;20045;-86
2023/03/14 11:41:01;;;;;;;9.30;1.70;;;6.70;99.90;;;;;;5062841;28;20032;-87
2023/03/14 11:43:40;;;;;;;9.27;1.80;;;7.70;99.90;;;;;;5065746;28;20041;-86
2023/03/14 11:46:31;;;;;;;4.75;1.40;;;7.00;99.90;;;;;;5064534;28;20057;-86
2023/03/14 11:49:32;;;;;;;6.97;1.92;;;7.40;99.90;;;;;;5063674;28;20052;-87
2023/03/14 11:52:09;;;;;;;6.47;1.60;;;7.10;99.90;;;;;;5062761;28;20076;-86
2023/03/14 11:55:09;;;;;;;10.60;2.10;;;7.10;99.90;;;;;;5063358;28;20681;-86
2023/03/14 11:57:35;;;;;;;11.75;2.00;;;7.30;99.90;;;;;;5058628;28;20116;-86
2023/03/14 12:00:24;;;;;;;11.20;2.05;;;7.40;99.90;;;;;;5028589;28;20115;-85
2023/03/14 12:03:41;;;;;;;9.07;1.65;;;7.60;99.90;;;;;;5045337;28;20044;-83
2023/03/14 12:06:28;;;;;;;10.60;2.15;;;7.40;99.90;;;;;;5020376;28;20056;-89
2023/03/14 12:08:59;;;;;;;10.38;2.10;;;7.20;99.90;;;;;;5063815;28;20576;-87
2023/03/14 12:11:43;;;;;;;11.20;2.40;;;8.10;99.90;;;;;;5063567;28;20087;-87
2023/03/14 12:14:36;;;;;;;10.70;2.25;;;7.00;99.90;;;;;;5062686;28;20228;-86
2023/03/14 12:17:21;;;;;;;10.77;1.92;;;7.00;99.90;;;;;;5045130;28;20048;-86
2023/03/14 12:19:48;;;;;;;11.55;2.70;;;6.80;99.90;;;;;;5048792;28;20190;-88
2023/03/14 12:22:25;;;;;;;10.00;2.30;;;6.90;99.90;;;;;;5027889;28;20037;-87
2023/03/14 12:24:57;;;;;;;13.98;2.35;;;7.20;99.90;;;;;;5061395;28;20045;-89
2023/03/14 12:27:54;;;;;;;12.40;2.30;;;8.00;99.90;;;;;;5061771;28;20068;-87
2023/03/14 12:30:30;;;;;;;16.00;2.33;;;6.70;99.90;;;;;;5046760;28;20545;-86
2023/03/14 12:33:18;;;;;;;14.07;2.58;;;6.70;99.90;;;;;;5061337;28;20119;-87
2023/03/14 12:35:50;;;;;;;13.13;3.10;;;6.70;99.90;;;;;;5064744;28;20087;-87
2023/03/14 12:38:18;;;;;;;14.10;2.40;;;6.50;99.90;;;;;;5062943;28;20040;-86
2023/03/14 12:41:22;;;;;;;14.48;2.60;;;6.50;99.90;;;;;;5045178;28;20093;-89
2023/03/14 12:43:47;;;;;;;12.40;2.25;;;6.60;99.90;;;;;;5062255;28;20040;-87
2023/03/14 12:46:27;;;;;;;11.30;2.28;;;6.60;99.90;;;;;;5064904;28;20052;-87
2023/03/14 12:48:55;;;;;;;11.52;2.65;;;6.40;99.90;;;;;;5062185;28;20044;-88
2023/03/14 12:51:37;;;;;;;15.82;3.20;;;7.00;99.90;;;;;;5060947;28;20051;-87
2023/03/14 12:54:38;;;;;;;11.98;2.38;;;6.40;99.90;;;;;;5063134;28;20039;-87
2023/03/14 12:57:10;;;;;;;11.38;2.38;;;6.40;99.90;;;;;;5061746;28;21018;-86
2023/03/14 12:59:52;;;;;;;11.63;2.80;;;7.20;99.90;;;;;;5058627;28;20572;-85
2023/03/14 13:02:23;;;;;;;9.40;2.25;;;7.70;99.90;;;;;;5045728;28;20519;-86